SAA402 FAPE-FAOR
Flight info
| Callsign | SAA402 |
|---|---|
| Flight time | 1h 28m |
| Altitude | 37000 |
| Route | ITKIT UZ5 AVILO AVILO1B |
| Aircraft | A320/M-SDE3FGHIRWY/LB1 |
Departure
| Time | 2026-04-16 09:30 |
|---|---|
| Airport | Chief Dawid Stuurman International Airport (FAPE) |
Arrival
| Time | 2026-04-16 10:59 |
|---|---|
| Airport | O.R. Tambo International Airport (FAOR) |
| Time | Latitude | Longitude | Altitude | Speed | Heading |
|---|---|---|---|---|---|
| 2026-04-16 09:02 | -33.98466 | 25.61181 | 232 ft | 0 kts | 328° |
| 2026-04-16 09:20 | -33.98479 | 25.61191 | 241 ft | 3 kts | 333° |
| 2026-04-16 09:20 | -33.98497 | 25.61201 | 234 ft | 3 kts | 345° |
| 2026-04-16 09:20 | -33.98516 | 25.61205 | 237 ft | 3 kts | 12° |
| 2026-04-16 09:20 | -33.98531 | 25.61196 | 238 ft | 2 kts | 58° |
| 2026-04-16 09:21 | -33.98531 | 25.61195 | 238 ft | 0 kts | 58° |
| 2026-04-16 09:25 | -33.98518 | 25.61222 | 236 ft | 9 kts | 58° |
| 2026-04-16 09:25 | -33.98480 | 25.61294 | 235 ft | 11 kts | 58° |
| 2026-04-16 09:26 | -33.98437 | 25.61383 | 236 ft | 12 kts | 66° |
| 2026-04-16 09:26 | -33.98403 | 25.61481 | 234 ft | 14 kts | 64° |
| 2026-04-16 09:26 | -33.98353 | 25.61581 | 235 ft | 15 kts | 58° |
| 2026-04-16 09:26 | -33.98297 | 25.61687 | 236 ft | 15 kts | 58° |
| 2026-04-16 09:27 | -33.98242 | 25.61792 | 235 ft | 13 kts | 58° |
| 2026-04-16 09:27 | -33.98226 | 25.61867 | 235 ft | 9 kts | 109° |
| 2026-04-16 09:27 | -33.98262 | 25.61907 | 237 ft | 0 kts | 148° |
| 2026-04-16 09:28 | -33.98263 | 25.61908 | 236 ft | 1 kts | 148° |
| 2026-04-16 09:28 | -33.98273 | 25.61916 | 237 ft | 3 kts | 148° |
| 2026-04-16 09:28 | -33.98298 | 25.61934 | 237 ft | 5 kts | 148° |
| 2026-04-16 09:29 | -33.98330 | 25.61956 | 240 ft | 6 kts | 150° |
| 2026-04-16 09:29 | -33.98366 | 25.61952 | 238 ft | 7 kts | 224° |
| 2026-04-16 09:29 | -33.98388 | 25.61919 | 235 ft | 0 kts | 239° |
| 2026-04-16 09:30 | -33.98402 | 25.61890 | 237 ft | 21 kts | 239° |
| 2026-04-16 09:30 | -33.98639 | 25.61430 | 238 ft | 107 kts | 238° |
| 2026-04-16 09:30 | -33.99151 | 25.60444 | 300 ft | 162 kts | 238° |
| 2026-04-16 09:30 | -33.99751 | 25.59290 | 1001 ft | 162 kts | 238° |
| 2026-04-16 09:31 | -34.00353 | 25.58140 | 1507 ft | 168 kts | 238° |
| 2026-04-16 09:31 | -34.01019 | 25.56864 | 1709 ft | 191 kts | 238° |
| 2026-04-16 09:31 | -34.01763 | 25.55417 | 1924 ft | 215 kts | 238° |
| 2026-04-16 09:31 | -34.02598 | 25.53788 | 2250 ft | 234 kts | 239° |
| 2026-04-16 09:32 | -34.03464 | 25.52105 | 2998 ft | 237 kts | 239° |
| 2026-04-16 09:32 | -34.04343 | 25.50408 | 3713 ft | 242 kts | 239° |
| 2026-04-16 09:32 | -34.05300 | 25.48605 | 3942 ft | 267 kts | 239° |
| 2026-04-16 09:32 | -34.06320 | 25.46704 | 4002 ft | 272 kts | 239° |
| 2026-04-16 09:33 | -34.07352 | 25.44775 | 4087 ft | 276 kts | 239° |
| 2026-04-16 09:33 | -34.08046 | 25.43489 | 4705 ft | 276 kts | 239° |
| 2026-04-16 09:33 | -34.09105 | 25.41573 | 5714 ft | 275 kts | 239° |
| 2026-04-16 09:33 | -34.10181 | 25.39661 | 6641 ft | 275 kts | 242° |
| 2026-04-16 09:34 | -34.10872 | 25.37539 | 7423 ft | 272 kts | 264° |
| 2026-04-16 09:34 | -34.10802 | 25.35278 | 8194 ft | 271 kts | 287° |
| 2026-04-16 09:34 | -34.09564 | 25.32699 | 9195 ft | 274 kts | 317° |
| 2026-04-16 09:34 | -34.07941 | 25.31485 | 9920 ft | 280 kts | 340° |
| 2026-04-16 09:35 | -34.06647 | 25.31171 | 10354 ft | 284 kts | 356° |
| 2026-04-16 09:35 | -34.04685 | 25.31562 | 11060 ft | 292 kts | 20° |
| 2026-04-16 09:35 | -34.02995 | 25.32967 | 11758 ft | 302 kts | 41° |
| 2026-04-16 09:35 | -34.01515 | 25.34809 | 12246 ft | 315 kts | 42° |
| 2026-04-16 09:36 | -33.99949 | 25.36782 | 12371 ft | 337 kts | 42° |
| 2026-04-16 09:36 | -33.98300 | 25.38870 | 12781 ft | 348 kts | 42° |
| 2026-04-16 09:36 | -33.96624 | 25.41003 | 13379 ft | 353 kts | 42° |
| 2026-04-16 09:36 | -33.94929 | 25.43158 | 14005 ft | 356 kts | 42° |
| 2026-04-16 09:37 | -33.93214 | 25.45329 | 14568 ft | 359 kts | 42° |
| 2026-04-16 09:37 | -33.91478 | 25.47513 | 15111 ft | 363 kts | 41° |
| 2026-04-16 09:37 | -33.89720 | 25.49713 | 15647 ft | 366 kts | 41° |
| 2026-04-16 09:37 | -33.87946 | 25.51929 | 16195 ft | 370 kts | 41° |
| 2026-04-16 09:38 | -33.86153 | 25.54171 | 16739 ft | 373 kts | 41° |
| 2026-04-16 09:38 | -33.84345 | 25.56435 | 17283 ft | 377 kts | 41° |
| 2026-04-16 09:38 | -33.82496 | 25.58752 | 17839 ft | 380 kts | 41° |
| 2026-04-16 09:38 | -33.80656 | 25.61055 | 18364 ft | 384 kts | 41° |
| 2026-04-16 09:39 | -33.78795 | 25.63378 | 18841 ft | 387 kts | 41° |
| 2026-04-16 09:39 | -33.76919 | 25.65716 | 19328 ft | 390 kts | 41° |
| 2026-04-16 09:39 | -33.75028 | 25.68071 | 19834 ft | 393 kts | 41° |
| 2026-04-16 09:39 | -33.73125 | 25.70442 | 20319 ft | 396 kts | 41° |
| 2026-04-16 09:40 | -33.71209 | 25.72831 | 20794 ft | 399 kts | 41° |
| 2026-04-16 09:40 | -33.69277 | 25.75240 | 21253 ft | 402 kts | 41° |
| 2026-04-16 09:40 | -33.67331 | 25.77664 | 21702 ft | 405 kts | 41° |
| 2026-04-16 09:40 | -33.65370 | 25.80105 | 22138 ft | 408 kts | 40° |
| 2026-04-16 09:41 | -33.63395 | 25.82564 | 22588 ft | 411 kts | 40° |
| 2026-04-16 09:41 | -33.61406 | 25.85040 | 23025 ft | 413 kts | 40° |
| 2026-04-16 09:41 | -33.59403 | 25.87528 | 23458 ft | 416 kts | 40° |
| 2026-04-16 09:41 | -33.57381 | 25.90032 | 23836 ft | 419 kts | 40° |
| 2026-04-16 09:42 | -33.55347 | 25.92551 | 24195 ft | 422 kts | 40° |
| 2026-04-16 09:42 | -33.53303 | 25.95084 | 24555 ft | 424 kts | 40° |
| 2026-04-16 09:42 | -33.51247 | 25.97630 | 24917 ft | 426 kts | 40° |
| 2026-04-16 09:42 | -33.49174 | 26.00187 | 25287 ft | 429 kts | 40° |
| 2026-04-16 09:43 | -33.47092 | 26.02755 | 25662 ft | 431 kts | 40° |
| 2026-04-16 09:43 | -33.45003 | 26.05338 | 26015 ft | 433 kts | 40° |
| 2026-04-16 09:43 | -33.42898 | 26.07938 | 26361 ft | 436 kts | 40° |
| 2026-04-16 09:43 | -33.40781 | 26.10551 | 26728 ft | 438 kts | 40° |
| 2026-04-16 09:44 | -33.38650 | 26.13173 | 27060 ft | 440 kts | 39° |
| 2026-04-16 09:44 | -33.36329 | 26.15521 | 27393 ft | 435 kts | 28° |
| 2026-04-16 09:44 | -33.33721 | 26.17301 | 27707 ft | 429 kts | 18° |
| 2026-04-16 09:44 | -33.30939 | 26.18541 | 28048 ft | 427 kts | 13° |
| 2026-04-16 09:45 | -33.28123 | 26.19703 | 28395 ft | 429 kts | 13° |
| 2026-04-16 09:45 | -33.25294 | 26.20882 | 28740 ft | 432 kts | 13° |
| 2026-04-16 09:45 | -33.22456 | 26.22072 | 29084 ft | 434 kts | 13° |
| 2026-04-16 09:45 | -33.19600 | 26.23275 | 29419 ft | 437 kts | 13° |
| 2026-04-16 09:46 | -33.16730 | 26.24486 | 29758 ft | 439 kts | 13° |
| 2026-04-16 09:46 | -33.13839 | 26.25702 | 30078 ft | 441 kts | 13° |
| 2026-04-16 09:46 | -33.10937 | 26.26918 | 30373 ft | 443 kts | 13° |
| 2026-04-16 09:46 | -33.08036 | 26.28131 | 30755 ft | 441 kts | 12° |
| 2026-04-16 09:47 | -33.05146 | 26.29338 | 31145 ft | 440 kts | 12° |
| 2026-04-16 09:47 | -33.02257 | 26.30543 | 31533 ft | 439 kts | 12° |
| 2026-04-16 09:47 | -32.99373 | 26.31744 | 31919 ft | 439 kts | 12° |
| 2026-04-16 09:47 | -32.96494 | 26.32943 | 32313 ft | 438 kts | 12° |
| 2026-04-16 09:48 | -32.93623 | 26.34140 | 32711 ft | 438 kts | 12° |
| 2026-04-16 09:48 | -32.90747 | 26.35339 | 33119 ft | 437 kts | 12° |
| 2026-04-16 09:48 | -32.87881 | 26.36530 | 33519 ft | 436 kts | 12° |
| 2026-04-16 09:48 | -32.85019 | 26.37717 | 33920 ft | 435 kts | 11° |
| 2026-04-16 09:49 | -32.82160 | 26.38904 | 34263 ft | 435 kts | 11° |
| 2026-04-16 09:49 | -32.79306 | 26.40089 | 34540 ft | 435 kts | 11° |
| 2026-04-16 09:49 | -32.76448 | 26.41273 | 34825 ft | 435 kts | 11° |
| 2026-04-16 09:49 | -32.73590 | 26.42452 | 35086 ft | 435 kts | 11° |
| 2026-04-16 09:50 | -32.70727 | 26.43632 | 35344 ft | 436 kts | 11° |
| 2026-04-16 09:50 | -32.67865 | 26.44815 | 35630 ft | 436 kts | 11° |
| 2026-04-16 09:50 | -32.65004 | 26.46002 | 35930 ft | 435 kts | 11° |
| 2026-04-16 09:50 | -32.62145 | 26.47188 | 36203 ft | 435 kts | 11° |
| 2026-04-16 09:51 | -32.59285 | 26.48372 | 36462 ft | 435 kts | 11° |
| 2026-04-16 09:51 | -32.56424 | 26.49552 | 36715 ft | 436 kts | 11° |
| 2026-04-16 09:51 | -32.53564 | 26.50729 | 36916 ft | 436 kts | 11° |
| 2026-04-16 09:52 | -32.47794 | 26.53103 | 37025 ft | 441 kts | 10° |
| 2026-04-16 09:52 | -32.41988 | 26.55496 | 37020 ft | 442 kts | 10° |
| 2026-04-16 09:53 | -32.36180 | 26.57892 | 37025 ft | 442 kts | 10° |
| 2026-04-16 09:53 | -32.30368 | 26.60274 | 37023 ft | 442 kts | 11° |
| 2026-04-16 09:54 | -32.24550 | 26.62659 | 37022 ft | 443 kts | 11° |
| 2026-04-16 09:54 | -32.18715 | 26.65053 | 37025 ft | 445 kts | 11° |
| 2026-04-16 09:55 | -32.12867 | 26.67449 | 37043 ft | 445 kts | 11° |
| 2026-04-16 09:55 | -32.06978 | 26.69859 | 37049 ft | 445 kts | 10° |
| 2026-04-16 09:56 | -32.01132 | 26.72239 | 37011 ft | 444 kts | 10° |
| 2026-04-16 09:56 | -31.95281 | 26.74611 | 37011 ft | 445 kts | 10° |
| 2026-04-16 09:57 | -31.89463 | 26.76984 | 37025 ft | 446 kts | 10° |
| 2026-04-16 09:57 | -31.83598 | 26.79369 | 37039 ft | 446 kts | 10° |
| 2026-04-16 09:58 | -31.77728 | 26.81745 | 37043 ft | 446 kts | 10° |
| 2026-04-16 09:58 | -31.71857 | 26.84115 | 37031 ft | 446 kts | 10° |
| 2026-04-16 09:59 | -31.65978 | 26.86492 | 37043 ft | 447 kts | 10° |
| 2026-04-16 09:59 | -31.60093 | 26.88868 | 37054 ft | 447 kts | 10° |
| 2026-04-16 10:00 | -31.54197 | 26.91242 | 37065 ft | 448 kts | 10° |
| 2026-04-16 10:00 | -31.48296 | 26.93618 | 37085 ft | 448 kts | 10° |
| 2026-04-16 10:01 | -31.39438 | 26.97182 | 37080 ft | 449 kts | 10° |
| 2026-04-16 10:01 | -31.33524 | 26.99554 | 37091 ft | 450 kts | 10° |
| 2026-04-16 10:02 | -31.27602 | 27.01932 | 37104 ft | 450 kts | 10° |
| 2026-04-16 10:02 | -31.21674 | 27.04307 | 37111 ft | 450 kts | 10° |
| 2026-04-16 10:03 | -31.15746 | 27.06684 | 37090 ft | 451 kts | 10° |
| 2026-04-16 10:03 | -31.09770 | 27.09072 | 37098 ft | 451 kts | 10° |
| 2026-04-16 10:04 | -31.03829 | 27.11436 | 37115 ft | 451 kts | 10° |
| 2026-04-16 10:04 | -30.97887 | 27.13806 | 37118 ft | 451 kts | 10° |
| 2026-04-16 10:05 | -30.91936 | 27.16173 | 37126 ft | 452 kts | 10° |
| 2026-04-16 10:05 | -30.85985 | 27.18540 | 37119 ft | 452 kts | 10° |
| 2026-04-16 10:06 | -30.80036 | 27.20904 | 37124 ft | 452 kts | 10° |
| 2026-04-16 10:06 | -30.74084 | 27.23269 | 37140 ft | 452 kts | 10° |
| 2026-04-16 10:07 | -30.68135 | 27.25633 | 37130 ft | 452 kts | 10° |
| 2026-04-16 10:07 | -30.62183 | 27.27994 | 37111 ft | 451 kts | 10° |
| 2026-04-16 10:08 | -30.56226 | 27.30340 | 37123 ft | 453 kts | 10° |
| 2026-04-16 10:08 | -30.50258 | 27.32685 | 37133 ft | 453 kts | 10° |
| 2026-04-16 10:09 | -30.44287 | 27.35032 | 37146 ft | 453 kts | 10° |
| 2026-04-16 10:09 | -30.38315 | 27.37381 | 37151 ft | 453 kts | 10° |
| 2026-04-16 10:10 | -30.32344 | 27.39722 | 37124 ft | 453 kts | 10° |
| 2026-04-16 10:10 | -30.26367 | 27.42072 | 37130 ft | 454 kts | 10° |
| 2026-04-16 10:11 | -30.21358 | 27.44037 | 37130 ft | 453 kts | 10° |
| 2026-04-16 10:11 | -30.15419 | 27.46361 | 37145 ft | 454 kts | 10° |
| 2026-04-16 10:12 | -30.09435 | 27.48695 | 37129 ft | 454 kts | 10° |
| 2026-04-16 10:12 | -30.03404 | 27.51043 | 37141 ft | 455 kts | 10° |
| 2026-04-16 10:13 | -29.97408 | 27.53377 | 37159 ft | 455 kts | 10° |
| 2026-04-16 10:13 | -29.91446 | 27.55701 | 37169 ft | 455 kts | 10° |
| 2026-04-16 10:14 | -29.85441 | 27.58038 | 37182 ft | 455 kts | 10° |
| 2026-04-16 10:14 | -29.79396 | 27.60385 | 37164 ft | 456 kts | 11° |
| 2026-04-16 10:15 | -29.73386 | 27.62716 | 37178 ft | 456 kts | 10° |
| 2026-04-16 10:15 | -29.67369 | 27.65036 | 37187 ft | 456 kts | 10° |
| 2026-04-16 10:16 | -29.61345 | 27.67360 | 37189 ft | 457 kts | 10° |
| 2026-04-16 10:16 | -29.55317 | 27.69690 | 37196 ft | 457 kts | 11° |
| 2026-04-16 10:17 | -29.49285 | 27.72025 | 37269 ft | 458 kts | 11° |
| 2026-04-16 10:17 | -29.43287 | 27.74335 | 37271 ft | 458 kts | 11° |
| 2026-04-16 10:18 | -29.37249 | 27.76658 | 37257 ft | 458 kts | 11° |
| 2026-04-16 10:18 | -29.31210 | 27.78979 | 37240 ft | 458 kts | 11° |
| 2026-04-16 10:19 | -29.25170 | 27.81298 | 37193 ft | 458 kts | 11° |
| 2026-04-16 10:19 | -29.19124 | 27.83622 | 37180 ft | 458 kts | 11° |
| 2026-04-16 10:20 | -29.13073 | 27.85936 | 37193 ft | 459 kts | 11° |
| 2026-04-16 10:20 | -29.07014 | 27.88240 | 37191 ft | 459 kts | 11° |
| 2026-04-16 10:21 | -29.00915 | 27.90572 | 37193 ft | 459 kts | 11° |
| 2026-04-16 10:21 | -28.94851 | 27.92887 | 37177 ft | 460 kts | 11° |
| 2026-04-16 10:22 | -28.88783 | 27.95202 | 37188 ft | 460 kts | 11° |
| 2026-04-16 10:22 | -28.82716 | 27.97508 | 37195 ft | 460 kts | 11° |
| 2026-04-16 10:23 | -28.76642 | 27.99812 | 37194 ft | 460 kts | 11° |
| 2026-04-16 10:23 | -28.70573 | 28.02109 | 37195 ft | 460 kts | 11° |
| 2026-04-16 10:24 | -28.64499 | 28.04416 | 37174 ft | 460 kts | 11° |
| 2026-04-16 10:24 | -28.58421 | 28.06719 | 37189 ft | 460 kts | 11° |
| 2026-04-16 10:25 | -28.52336 | 28.09013 | 37195 ft | 461 kts | 11° |
| 2026-04-16 10:25 | -28.46253 | 28.11311 | 37200 ft | 461 kts | 11° |
| 2026-04-16 10:26 | -28.40169 | 28.13615 | 37178 ft | 461 kts | 11° |
| 2026-04-16 10:26 | -28.34079 | 28.15905 | 37185 ft | 461 kts | 11° |
| 2026-04-16 10:27 | -28.27983 | 28.18194 | 37195 ft | 462 kts | 12° |
| 2026-04-16 10:27 | -28.21883 | 28.20487 | 37212 ft | 462 kts | 11° |
| 2026-04-16 10:28 | -28.15780 | 28.22776 | 37206 ft | 462 kts | 11° |
| 2026-04-16 10:28 | -28.09678 | 28.25062 | 37214 ft | 462 kts | 11° |
| 2026-04-16 10:29 | -28.03575 | 28.27347 | 37211 ft | 462 kts | 11° |
| 2026-04-16 10:29 | -27.97470 | 28.29629 | 37220 ft | 462 kts | 11° |
| 2026-04-16 10:30 | -27.91339 | 28.31754 | 37227 ft | 460 kts | 9° |
| 2026-04-16 10:30 | -27.85190 | 28.33768 | 37223 ft | 460 kts | 9° |
| 2026-04-16 10:31 | -27.79039 | 28.35792 | 37213 ft | 461 kts | 9° |
| 2026-04-16 10:31 | -27.72889 | 28.37861 | 37211 ft | 461 kts | 10° |
| 2026-04-16 10:32 | -27.66741 | 28.39942 | 37217 ft | 461 kts | 10° |
| 2026-04-16 10:32 | -27.60585 | 28.42001 | 37226 ft | 461 kts | 10° |
| 2026-04-16 10:33 | -27.54426 | 28.44054 | 37196 ft | 462 kts | 10° |
| 2026-04-16 10:33 | -27.48268 | 28.46142 | 37204 ft | 464 kts | 13° |
| 2026-04-16 10:34 | -27.42312 | 28.49131 | 37212 ft | 470 kts | 19° |
| 2026-04-16 10:34 | -27.36382 | 28.52237 | 37220 ft | 470 kts | 19° |
| 2026-04-16 10:35 | -27.30445 | 28.55335 | 37222 ft | 471 kts | 19° |
| 2026-04-16 10:35 | -27.24502 | 28.58426 | 37211 ft | 471 kts | 19° |
| 2026-04-16 10:36 | -27.18558 | 28.61516 | 37219 ft | 471 kts | 19° |
| 2026-04-16 10:36 | -27.12610 | 28.64618 | 37224 ft | 471 kts | 19° |
| 2026-04-16 10:37 | -27.06659 | 28.67714 | 36917 ft | 471 kts | 19° |
| 2026-04-16 10:37 | -27.03662 | 28.69154 | 36618 ft | 465 kts | 12° |
| 2026-04-16 10:37 | -27.00542 | 28.69967 | 35998 ft | 456 kts | 359° |
| 2026-04-16 10:38 | -26.97424 | 28.70015 | 35575 ft | 442 kts | 348° |
| 2026-04-16 10:38 | -26.94440 | 28.69406 | 35086 ft | 431 kts | 337° |
| 2026-04-16 10:38 | -26.91681 | 28.68213 | 34640 ft | 420 kts | 327° |
| 2026-04-16 10:38 | -26.89121 | 28.66684 | 34279 ft | 415 kts | 326° |
| 2026-04-16 10:39 | -26.86577 | 28.65158 | 33829 ft | 412 kts | 326° |
| 2026-04-16 10:39 | -26.84065 | 28.63660 | 33443 ft | 407 kts | 326° |
| 2026-04-16 10:39 | -26.81570 | 28.62177 | 32965 ft | 405 kts | 326° |
| 2026-04-16 10:39 | -26.79090 | 28.60701 | 32507 ft | 402 kts | 326° |
| 2026-04-16 10:40 | -26.76632 | 28.59233 | 32062 ft | 399 kts | 326° |
| 2026-04-16 10:40 | -26.74191 | 28.57776 | 31635 ft | 396 kts | 326° |
| 2026-04-16 10:40 | -26.71766 | 28.56330 | 31207 ft | 394 kts | 326° |
| 2026-04-16 10:40 | -26.69360 | 28.54898 | 30681 ft | 391 kts | 326° |
| 2026-04-16 10:41 | -26.66959 | 28.53471 | 30299 ft | 388 kts | 326° |
| 2026-04-16 10:41 | -26.64588 | 28.52063 | 29875 ft | 385 kts | 326° |
| 2026-04-16 10:41 | -26.62224 | 28.50655 | 29348 ft | 384 kts | 326° |
| 2026-04-16 10:41 | -26.59880 | 28.49259 | 28930 ft | 381 kts | 325° |
| 2026-04-16 10:42 | -26.57742 | 28.47590 | 28509 ft | 370 kts | 313° |
| 2026-04-16 10:42 | -26.56053 | 28.45474 | 28090 ft | 362 kts | 301° |
| 2026-04-16 10:42 | -26.54855 | 28.43031 | 27638 ft | 357 kts | 289° |
| 2026-04-16 10:42 | -26.53975 | 28.40455 | 27362 ft | 351 kts | 289° |
| 2026-04-16 10:43 | -26.53180 | 28.37929 | 27231 ft | 339 kts | 280° |
| 2026-04-16 10:43 | -26.53201 | 28.35369 | 27074 ft | 329 kts | 255° |
| 2026-04-16 10:43 | -26.54286 | 28.33148 | 26740 ft | 334 kts | 231° |
| 2026-04-16 10:43 | -26.56240 | 28.31613 | 26063 ft | 355 kts | 208° |
| 2026-04-16 10:44 | -26.58603 | 28.30690 | 25452 ft | 365 kts | 199° |
| 2026-04-16 10:44 | -26.61109 | 28.30063 | 24811 ft | 373 kts | 197° |
| 2026-04-16 10:44 | -26.63523 | 28.29074 | 24146 ft | 369 kts | 217° |
| 2026-04-16 10:44 | -26.65334 | 28.27051 | 23418 ft | 362 kts | 243° |
| 2026-04-16 10:45 | -26.66068 | 28.24501 | 22965 ft | 342 kts | 269° |
| 2026-04-16 10:45 | -26.65669 | 28.21949 | 22625 ft | 334 kts | 295° |
| 2026-04-16 10:45 | -26.64245 | 28.19930 | 22283 ft | 335 kts | 322° |
| 2026-04-16 10:45 | -26.62077 | 28.18878 | 21905 ft | 342 kts | 349° |
| 2026-04-16 10:46 | -26.59684 | 28.18931 | 21532 ft | 347 kts | 2° |
| 2026-04-16 10:46 | -26.57311 | 28.18947 | 21182 ft | 344 kts | 353° |
| 2026-04-16 10:46 | -26.54902 | 28.18727 | 20809 ft | 340 kts | 346° |
| 2026-04-16 10:46 | -26.52764 | 28.17813 | 20450 ft | 330 kts | 324° |
| 2026-04-16 10:47 | -26.51119 | 28.16045 | 20060 ft | 323 kts | 302° |
| 2026-04-16 10:47 | -26.50247 | 28.13775 | 19428 ft | 319 kts | 279° |
| 2026-04-16 10:47 | -26.50106 | 28.11311 | 18790 ft | 319 kts | 270° |
| 2026-04-16 10:47 | -26.50133 | 28.08833 | 18080 ft | 319 kts | 269° |
| 2026-04-16 10:48 | -26.50178 | 28.06367 | 17374 ft | 317 kts | 269° |
| 2026-04-16 10:48 | -26.50234 | 28.03924 | 16747 ft | 313 kts | 269° |
| 2026-04-16 10:48 | -26.50274 | 28.02320 | 16329 ft | 311 kts | 269° |
| 2026-04-16 10:48 | -26.50338 | 27.99901 | 15829 ft | 312 kts | 269° |
| 2026-04-16 10:49 | -26.50407 | 27.97494 | 15513 ft | 310 kts | 269° |
| 2026-04-16 10:49 | -26.50477 | 27.95100 | 15192 ft | 308 kts | 269° |
| 2026-04-16 10:49 | -26.50548 | 27.92719 | 14882 ft | 306 kts | 269° |
| 2026-04-16 10:49 | -26.50621 | 27.90350 | 14572 ft | 305 kts | 269° |
| 2026-04-16 10:50 | -26.50549 | 27.88004 | 14261 ft | 301 kts | 284° |
| 2026-04-16 10:50 | -26.49697 | 27.85909 | 13932 ft | 297 kts | 309° |
| 2026-04-16 10:50 | -26.48134 | 27.84450 | 13569 ft | 295 kts | 333° |
| 2026-04-16 10:50 | -26.46155 | 27.83894 | 13202 ft | 297 kts | 359° |
| 2026-04-16 10:51 | -26.44139 | 27.84358 | 12846 ft | 300 kts | 24° |
| 2026-04-16 10:51 | -26.42482 | 27.85762 | 12504 ft | 303 kts | 49° |
| 2026-04-16 10:51 | -26.41469 | 27.87824 | 12156 ft | 306 kts | 67° |
| 2026-04-16 10:51 | -26.40768 | 27.90053 | 11932 ft | 301 kts | 69° |
| 2026-04-16 10:52 | -26.40126 | 27.92216 | 11800 ft | 285 kts | 69° |
| 2026-04-16 10:52 | -26.39519 | 27.94280 | 11654 ft | 274 kts | 69° |
| 2026-04-16 10:52 | -26.38937 | 27.96281 | 11307 ft | 271 kts | 70° |
| 2026-04-16 10:52 | -26.38360 | 27.98269 | 11061 ft | 268 kts | 69° |
| 2026-04-16 10:53 | -26.37783 | 28.00240 | 10812 ft | 266 kts | 69° |
| 2026-04-16 10:53 | -26.37212 | 28.02197 | 10552 ft | 265 kts | 69° |
| 2026-04-16 10:53 | -26.36647 | 28.04151 | 10298 ft | 264 kts | 70° |
| 2026-04-16 10:53 | -26.36084 | 28.06084 | 10128 ft | 262 kts | 69° |
| 2026-04-16 10:54 | -26.35523 | 28.08015 | 10006 ft | 263 kts | 70° |
| 2026-04-16 10:54 | -26.34960 | 28.09954 | 9842 ft | 263 kts | 69° |
| 2026-04-16 10:54 | -26.34395 | 28.11888 | 9688 ft | 262 kts | 69° |
| 2026-04-16 10:54 | -26.33823 | 28.13843 | 9517 ft | 262 kts | 69° |
| 2026-04-16 10:55 | -26.33031 | 28.15644 | 9373 ft | 258 kts | 53° |
| 2026-04-16 10:55 | -26.31948 | 28.17228 | 9161 ft | 255 kts | 44° |
| 2026-04-16 10:55 | -26.30531 | 28.18408 | 8749 ft | 253 kts | 22° |
| 2026-04-16 10:55 | -26.28914 | 28.19013 | 8426 ft | 239 kts | 14° |
| 2026-04-16 10:56 | -26.27349 | 28.19495 | 8127 ft | 228 kts | 13° |
| 2026-04-16 10:56 | -26.25866 | 28.19954 | 7858 ft | 214 kts | 13° |
| 2026-04-16 10:56 | -26.24483 | 28.20383 | 7584 ft | 198 kts | 12° |
| 2026-04-16 10:56 | -26.23215 | 28.20777 | 7342 ft | 182 kts | 13° |
| 2026-04-16 10:57 | -26.22030 | 28.21145 | 7116 ft | 169 kts | 13° |
| 2026-04-16 10:57 | -26.20939 | 28.21484 | 6918 ft | 157 kts | 14° |
| 2026-04-16 10:57 | -26.19901 | 28.21804 | 6781 ft | 152 kts | 11° |
| 2026-04-16 10:57 | -26.18883 | 28.22120 | 6568 ft | 151 kts | 12° |
| 2026-04-16 10:58 | -26.17877 | 28.22431 | 6351 ft | 150 kts | 13° |
| 2026-04-16 10:58 | -26.16881 | 28.22740 | 6129 ft | 147 kts | 13° |
| 2026-04-16 10:58 | -26.15885 | 28.23049 | 5864 ft | 147 kts | 14° |
| 2026-04-16 10:58 | -26.14878 | 28.23364 | 5658 ft | 151 kts | 15° |
| 2026-04-16 10:59 | -26.13868 | 28.23675 | 5564 ft | 135 kts | 15° |
| 2026-04-16 10:59 | -26.13104 | 28.23912 | 5548 ft | 94 kts | 15° |
| 2026-04-16 10:59 | -26.12691 | 28.24041 | 5542 ft | 30 kts | 17° |
| 2026-04-16 10:59 | -26.12595 | 28.24055 | 5545 ft | 12 kts | 330° |
| 2026-04-16 11:00 | -26.12567 | 28.23987 | 5541 ft | 6 kts | 285° |
| 2026-04-16 11:00 | -26.12558 | 28.23953 | 5547 ft | 5 kts | 285° |
| 2026-04-16 11:00 | -26.12550 | 28.23915 | 5542 ft | 6 kts | 278° |
| 2026-04-16 11:00 | -26.12572 | 28.23876 | 5546 ft | 7 kts | 211° |
| 2026-04-16 11:01 | -26.12623 | 28.23858 | 5547 ft | 10 kts | 195° |
| 2026-04-16 11:01 | -26.12693 | 28.23837 | 5546 ft | 10 kts | 195° |
| 2026-04-16 11:01 | -26.12763 | 28.23815 | 5549 ft | 11 kts | 195° |
| 2026-04-16 11:01 | -26.12842 | 28.23790 | 5547 ft | 13 kts | 195° |
| 2026-04-16 11:02 | -26.12930 | 28.23763 | 5547 ft | 14 kts | 195° |
| 2026-04-16 11:02 | -26.13024 | 28.23734 | 5548 ft | 14 kts | 196° |
| 2026-04-16 11:02 | -26.13121 | 28.23704 | 5548 ft | 15 kts | 195° |
| 2026-04-16 11:02 | -26.13224 | 28.23672 | 5548 ft | 16 kts | 195° |
| 2026-04-16 11:03 | -26.13325 | 28.23641 | 5550 ft | 14 kts | 195° |
| 2026-04-16 11:03 | -26.13420 | 28.23611 | 5552 ft | 14 kts | 195° |
| 2026-04-16 11:03 | -26.13606 | 28.23553 | 5552 ft | 14 kts | 195° |
| 2026-04-16 11:04 | -26.13697 | 28.23525 | 5555 ft | 13 kts | 195° |
| 2026-04-16 11:04 | -26.13774 | 28.23498 | 5558 ft | 11 kts | 212° |
| 2026-04-16 11:04 | -26.13776 | 28.23399 | 5549 ft | 14 kts | 287° |
| 2026-04-16 11:04 | -26.13774 | 28.23310 | 5548 ft | 12 kts | 288° |
| 2026-04-16 11:05 | -26.13757 | 28.23224 | 5547 ft | 8 kts | 277° |
| 2026-04-16 11:05 | -26.13750 | 28.23161 | 5547 ft | 9 kts | 276° |
| 2026-04-16 11:05 | -26.13769 | 28.23107 | 5548 ft | 8 kts | 186° |
| 2026-04-16 11:05 | -26.13818 | 28.23101 | 5547 ft | 4 kts | 186° |
| 2026-04-16 11:06 | -26.13832 | 28.23099 | 5550 ft | 1 kts | 186° |
| 2026-04-16 11:06 | -26.13835 | 28.23099 | 5549 ft | 0 kts | 186° |